Language selection

Weather shortcuts

Cabot Strait: Past 24 Hour Conditions

 

East Chedabucto Bay - 44488

04:00 PM ADT 17 July 2024Buoy position: 45.45N 60.95W
Disclaimer

This table is a summary of hourly weather conditions for the past 24 hours.
Please note that these observations might not always be representative of weather conditions over their associated marine area.

Date / Time
(ADT)
Wind(knots) Wave height(m) Wave period(s) Pressure(kPa) Air tempC) Water tempC)
17 July 2024
16:00 WSW 17 gusts 19 0.66 3.5 100.7 17 15
15:00 WSW 17 gusts 21 0.74 3.3 100.7 18 15
14:00 W 17 gusts 20 0.71 3.4 100.7 18 15
13:00 W 10 gusts 12 0.47 4.2 100.8 18 15
12:00 WSW 15 gusts 18 0.39 4.5 100.8 18 15
11:00 W 7 gusts 10 0.36 4.2 100.9 17 14
10:00 SW 6 gusts 7 0.39 4.1 100.8 16 14
9:00 W 7 gusts 9 0.51 3.6 100.9 16 14
8:00 W 13 gusts 15 0.65 3.3 100.9 16 14
7:00 WSW 17 gusts 19 0.52 3.2 100.8 15 14
6:00 WSW 17 gusts 19 0.59 3.2 100.7 15 14
5:00 WSW 18 gusts 21 0.58 3.4 100.7 15 14
4:00 WSW 17 gusts 19 0.57 3.7 100.7 16 14
3:00 WSW 18 gusts 21 0.59 3.6 100.7 16 14
2:00 WSW 21 gusts 24 0.65 3.4 100.7 16 14
1:00 WSW 17 gusts 18 0.66 3.6 100.7 16 14
0:00 W 15 gusts 17 0.71 3.4 100.8 17 14
16 July 2024
23:00 WSW 14 gusts 17 0.73 3.5 100.8 18 15
22:00 SW 10 gusts 11 0.57 3.8 100.8 18 15
21:00 SW 18 gusts 21 0.55 3.4 100.8 19 15
20:00 WSW 13 gusts 16 0.46 3.2 100.8 18 15
19:00 W 10 gusts 13 0.39 3.4 100.9 17 15
18:00 WSW 7 gusts 8 0.47 3.3 100.9 17 15
17:00 WSW 13 gusts 16 0.50 3.2 100.9 18 15
16:00 WSW 17 gusts 18 0.60 3.2 101.0 18 16

Zoom-in to make a selection

Map of Atlantic - Newfoundland marine weather areas Banquereau - 44139 East Chedabucto Bay – 44488 West Chedabucto Bay – 44489 Blanc-Sablon Airport Cap Whittle Chevery Natashquan Airport Heath Point Îles de la Madeleine Airport Miscou Island Eskasoni (First Nations) Grand Étang Ingonish Beach North Mountain St.Paul Island J.A. Douglas McCurdy Sydney Airport Charlottetown Airport East Point North Cape Argentia Berry Hill Bonavista Burgeo Cape Race Corner Brook Daniel's Harbour Englee Ferolle Point La Scie Port aux Basques Sagona Island St. Anthony Airport St. John's Int'l Airport St. Lawrence Stephenville Airport Twillingate Winterland Branch Hill Wreckhouse Grates Cove Pool's Island Marticot Island Long Pond Cartwright Airport Mary's Harbour
Legend:
buoy Buoy
land station Land Station

Atlantic - Newfoundland Area

Another Region

Features

New Predicting and Alerting Coastal Flooding Program

Find out about coastal flooding coverage, forecasts and warnings in your region

Date modified: